sensor_id;sensor_type;location;lat;lon;timestamp;P1;durP1;ratioP1;P2;durP2;ratioP2
1479;SDS011;732;51.698;4.886;2023-11-21T00:00:11;77.57;;;30.93;;
1479;SDS011;732;51.698;4.886;2023-11-21T00:02:41;64.73;;;28.47;;
1479;SDS011;732;51.698;4.886;2023-11-21T00:05:10;104.53;;;36.07;;
1479;SDS011;732;51.698;4.886;2023-11-21T00:07:41;80.50;;;32.50;;
1479;SDS011;732;51.698;4.886;2023-11-21T00:10:11;117.87;;;38.23;;
1479;SDS011;732;51.698;4.886;2023-11-21T00:12:42;97.63;;;36.47;;
1479;SDS011;732;51.698;4.886;2023-11-21T00:15:10;98.50;;;33.90;;
1479;SDS011;732;51.698;4.886;2023-11-21T00:17:39;84.77;;;32.33;;
1479;SDS011;732;51.698;4.886;2023-11-21T00:20:09;144.33;;;42.10;;
1479;SDS011;732;51.698;4.886;2023-11-21T00:22:40;127.03;;;40.40;;
1479;SDS011;732;51.698;4.886;2023-11-21T00:25:09;107.40;;;39.03;;
1479;SDS011;732;51.698;4.886;2023-11-21T00:27:41;136.80;;;41.13;;
1479;SDS011;732;51.698;4.886;2023-11-21T00:30:11;109.37;;;37.77;;
1479;SDS011;732;51.698;4.886;2023-11-21T00:32:41;92.20;;;34.40;;
1479;SDS011;732;51.698;4.886;2023-11-21T00:35:10;155.73;;;40.87;;
1479;SDS011;732;51.698;4.886;2023-11-21T00:37:38;168.10;;;40.60;;
1479;SDS011;732;51.698;4.886;2023-11-21T00:40:07;529.27;;;72.90;;
1479;SDS011;732;51.698;4.886;2023-11-21T00:42:38;419.83;;;65.37;;
1479;SDS011;732;51.698;4.886;2023-11-21T00:45:07;418.87;;;66.83;;
1479;SDS011;732;51.698;4.886;2023-11-21T00:47:36;229.13;;;49.20;;
1479;SDS011;732;51.698;4.886;2023-11-21T00:50:06;329.63;;;57.60;;
1479;SDS011;732;51.698;4.886;2023-11-21T00:52:36;179.00;;;45.73;;
1479;SDS011;732;51.698;4.886;2023-11-21T00:55:05;229.87;;;49.93;;
1479;SDS011;732;51.698;4.886;2023-11-21T00:57:35;657.10;;;88.33;;
1479;SDS011;732;51.698;4.886;2023-11-21T01:00:06;356.20;;;54.47;;
1479;SDS011;732;51.698;4.886;2023-11-21T01:02:40;379.63;;;57.10;;
1479;SDS011;732;51.698;4.886;2023-11-21T01:05:09;736.10;;;103.67;;
1479;SDS011;732;51.698;4.886;2023-11-21T01:07:39;310.03;;;58.43;;
1479;SDS011;732;51.698;4.886;2023-11-21T01:10:07;257.30;;;57.57;;
1479;SDS011;732;51.698;4.886;2023-11-21T01:12:37;331.13;;;67.00;;
1479;SDS011;732;51.698;4.886;2023-11-21T01:15:08;138.47;;;42.37;;
1479;SDS011;732;51.698;4.886;2023-11-21T01:17:38;201.43;;;49.93;;
1479;SDS011;732;51.698;4.886;2023-11-21T01:20:08;116.73;;;40.50;;
1479;SDS011;732;51.698;4.886;2023-11-21T01:22:40;182.57;;;47.13;;
1479;SDS011;732;51.698;4.886;2023-11-21T01:25:09;216.87;;;47.73;;
1479;SDS011;732;51.698;4.886;2023-11-21T01:27:38;220.80;;;51.90;;
1479;SDS011;732;51.698;4.886;2023-11-21T01:30:08;103.60;;;37.00;;
1479;SDS011;732;51.698;4.886;2023-11-21T01:32:38;133.10;;;46.90;;
1479;SDS011;732;51.698;4.886;2023-11-21T01:35:08;106.13;;;39.60;;
1479;SDS011;732;51.698;4.886;2023-11-21T01:37:37;98.23;;;37.33;;
1479;SDS011;732;51.698;4.886;2023-11-21T01:40:06;88.90;;;36.43;;
1479;SDS011;732;51.698;4.886;2023-11-21T01:42:37;91.23;;;38.00;;
1479;SDS011;732;51.698;4.886;2023-11-21T01:45:08;124.20;;;43.80;;
1479;SDS011;732;51.698;4.886;2023-11-21T01:47:39;97.20;;;38.73;;
1479;SDS011;732;51.698;4.886;2023-11-21T01:50:12;116.27;;;42.90;;
1479;SDS011;732;51.698;4.886;2023-11-21T01:52:45;89.27;;;38.27;;
1479;SDS011;732;51.698;4.886;2023-11-21T01:55:16;129.67;;;46.80;;
1479;SDS011;732;51.698;4.886;2023-11-21T01:57:51;118.93;;;44.50;;
1479;SDS011;732;51.698;4.886;2023-11-21T02:00:21;108.90;;;43.40;;
1479;SDS011;732;51.698;4.886;2023-11-21T02:02:50;108.70;;;40.27;;
1479;SDS011;732;51.698;4.886;2023-11-21T02:05:20;98.67;;;42.77;;
1479;SDS011;732;51.698;4.886;2023-11-21T02:07:49;109.27;;;42.40;;
1479;SDS011;732;51.698;4.886;2023-11-21T02:10:19;98.40;;;42.70;;
1479;SDS011;732;51.698;4.886;2023-11-21T02:12:50;120.27;;;43.20;;
1479;SDS011;732;51.698;4.886;2023-11-21T02:15:21;118.43;;;42.20;;
1479;SDS011;732;51.698;4.886;2023-11-21T02:17:54;129.37;;;45.90;;
1479;SDS011;732;51.698;4.886;2023-11-21T02:20:26;124.40;;;45.03;;
1479;SDS011;732;51.698;4.886;2023-11-21T02:22:57;138.30;;;47.20;;
1479;SDS011;732;51.698;4.886;2023-11-21T02:25:28;130.27;;;46.83;;
1479;SDS011;732;51.698;4.886;2023-11-21T02:27:59;106.57;;;40.37;;
1479;SDS011;732;51.698;4.886;2023-11-21T02:30:29;101.13;;;39.27;;
1479;SDS011;732;51.698;4.886;2023-11-21T02:32:59;116.67;;;42.50;;
1479;SDS011;732;51.698;4.886;2023-11-21T02:35:28;126.90;;;45.00;;
1479;SDS011;732;51.698;4.886;2023-11-21T02:37:59;121.43;;;45.00;;
1479;SDS011;732;51.698;4.886;2023-11-21T02:40:28;122.03;;;42.70;;
1479;SDS011;732;51.698;4.886;2023-11-21T02:42:57;115.43;;;43.27;;
1479;SDS011;732;51.698;4.886;2023-11-21T02:45:26;101.67;;;40.30;;
1479;SDS011;732;51.698;4.886;2023-11-21T02:47:55;103.17;;;38.30;;
1479;SDS011;732;51.698;4.886;2023-11-21T02:50:25;100.13;;;40.63;;
1479;SDS011;732;51.698;4.886;2023-11-21T02:52:54;98.67;;;36.23;;
1479;SDS011;732;51.698;4.886;2023-11-21T02:55:25;81.80;;;36.80;;
1479;SDS011;732;51.698;4.886;2023-11-21T02:57:54;113.17;;;43.30;;
1479;SDS011;732;51.698;4.886;2023-11-21T03:00:24;128.47;;;45.70;;
1479;SDS011;732;51.698;4.886;2023-11-21T03:02:54;100.40;;;39.87;;
1479;SDS011;732;51.698;4.886;2023-11-21T03:05:25;94.83;;;38.40;;
1479;SDS011;732;51.698;4.886;2023-11-21T03:07:55;116.83;;;41.30;;
1479;SDS011;732;51.698;4.886;2023-11-21T03:10:26;88.87;;;35.80;;
1479;SDS011;732;51.698;4.886;2023-11-21T03:12:55;99.20;;;38.03;;
1479;SDS011;732;51.698;4.886;2023-11-21T03:15:24;92.03;;;37.40;;
1479;SDS011;732;51.698;4.886;2023-11-21T03:17:52;85.80;;;36.37;;
1479;SDS011;732;51.698;4.886;2023-11-21T03:20:21;89.47;;;37.40;;
1479;SDS011;732;51.698;4.886;2023-11-21T03:22:50;105.67;;;37.77;;
1479;SDS011;732;51.698;4.886;2023-11-21T03:25:19;101.93;;;39.07;;
1479;SDS011;732;51.698;4.886;2023-11-21T03:27:52;94.83;;;35.90;;
1479;SDS011;732;51.698;4.886;2023-11-21T03:30:20;87.90;;;36.17;;
1479;SDS011;732;51.698;4.886;2023-11-21T03:32:49;80.23;;;34.30;;
1479;SDS011;732;51.698;4.886;2023-11-21T03:35:17;78.57;;;33.90;;
1479;SDS011;732;51.698;4.886;2023-11-21T03:37:47;84.43;;;33.33;;
1479;SDS011;732;51.698;4.886;2023-11-21T03:40:16;83.53;;;35.70;;
1479;SDS011;732;51.698;4.886;2023-11-21T03:42:44;87.40;;;35.13;;
1479;SDS011;732;51.698;4.886;2023-11-21T03:45:15;80.80;;;34.40;;
1479;SDS011;732;51.698;4.886;2023-11-21T03:47:43;75.53;;;32.40;;
1479;SDS011;732;51.698;4.886;2023-11-21T03:50:13;91.03;;;35.70;;
1479;SDS011;732;51.698;4.886;2023-11-21T03:52:43;98.33;;;36.70;;
1479;SDS011;732;51.698;4.886;2023-11-21T03:55:12;95.23;;;36.20;;
1479;SDS011;732;51.698;4.886;2023-11-21T03:57:42;95.23;;;38.33;;
1479;SDS011;732;51.698;4.886;2023-11-21T04:00:11;96.83;;;36.90;;
1479;SDS011;732;51.698;4.886;2023-11-21T04:02:41;107.13;;;38.77;;
1479;SDS011;732;51.698;4.886;2023-11-21T04:05:10;88.33;;;35.13;;
1479;SDS011;732;51.698;4.886;2023-11-21T04:07:38;98.77;;;35.00;;
1479;SDS011;732;51.698;4.886;2023-11-21T04:10:07;86.63;;;33.67;;
1479;SDS011;732;51.698;4.886;2023-11-21T04:12:38;93.37;;;36.17;;
1479;SDS011;732;51.698;4.886;2023-11-21T04:15:07;80.07;;;33.70;;
1479;SDS011;732;51.698;4.886;2023-11-21T04:17:37;81.63;;;34.60;;
1479;SDS011;732;51.698;4.886;2023-11-21T04:20:07;85.50;;;34.80;;
1479;SDS011;732;51.698;4.886;2023-11-21T04:22:37;93.70;;;35.70;;
1479;SDS011;732;51.698;4.886;2023-11-21T04:25:11;97.33;;;36.77;;
1479;SDS011;732;51.698;4.886;2023-11-21T04:27:42;107.57;;;37.17;;
1479;SDS011;732;51.698;4.886;2023-11-21T04:30:12;101.80;;;39.17;;
1479;SDS011;732;51.698;4.886;2023-11-21T04:32:42;101.03;;;38.10;;
1479;SDS011;732;51.698;4.886;2023-11-21T04:35:12;99.73;;;37.87;;
1479;SDS011;732;51.698;4.886;2023-11-21T04:37:41;99.10;;;36.40;;
1479;SDS011;732;51.698;4.886;2023-11-21T04:40:12;90.73;;;35.50;;
1479;SDS011;732;51.698;4.886;2023-11-21T04:42:40;98.10;;;37.63;;
1479;SDS011;732;51.698;4.886;2023-11-21T04:45:09;96.60;;;35.57;;
1479;SDS011;732;51.698;4.886;2023-11-21T04:47:39;93.03;;;36.83;;
1479;SDS011;732;51.698;4.886;2023-11-21T04:50:08;109.53;;;37.27;;
1479;SDS011;732;51.698;4.886;2023-11-21T04:52:39;100.43;;;37.53;;
1479;SDS011;732;51.698;4.886;2023-11-21T04:55:07;101.63;;;36.90;;
1479;SDS011;732;51.698;4.886;2023-11-21T04:57:37;95.53;;;36.57;;
1479;SDS011;732;51.698;4.886;2023-11-21T05:00:09;101.27;;;37.50;;
1479;SDS011;732;51.698;4.886;2023-11-21T05:02:39;105.57;;;36.77;;
1479;SDS011;732;51.698;4.886;2023-11-21T05:05:08;97.60;;;37.10;;
1479;SDS011;732;51.698;4.886;2023-11-21T05:07:39;106.50;;;38.30;;
1479;SDS011;732;51.698;4.886;2023-11-21T05:10:08;112.17;;;39.80;;
1479;SDS011;732;51.698;4.886;2023-11-21T05:12:39;120.23;;;42.00;;
1479;SDS011;732;51.698;4.886;2023-11-21T05:15:09;104.03;;;38.80;;
1479;SDS011;732;51.698;4.886;2023-11-21T05:17:41;115.37;;;41.50;;
1479;SDS011;732;51.698;4.886;2023-11-21T05:20:11;128.67;;;42.00;;
1479;SDS011;732;51.698;4.886;2023-11-21T05:22:42;105.67;;;38.30;;
1479;SDS011;732;51.698;4.886;2023-11-21T05:25:11;115.23;;;40.97;;
1479;SDS011;732;51.698;4.886;2023-11-21T05:27:39;109.10;;;41.00;;
1479;SDS011;732;51.698;4.886;2023-11-21T05:30:08;118.53;;;41.60;;
1479;SDS011;732;51.698;4.886;2023-11-21T05:32:39;102.83;;;39.90;;
1479;SDS011;732;51.698;4.886;2023-11-21T05:35:10;98.63;;;38.43;;
1479;SDS011;732;51.698;4.886;2023-11-21T05:37:44;125.27;;;43.40;;
1479;SDS011;732;51.698;4.886;2023-11-21T05:40:14;95.60;;;37.07;;
1479;SDS011;732;51.698;4.886;2023-11-21T05:42:43;97.87;;;36.93;;
1479;SDS011;732;51.698;4.886;2023-11-21T05:45:12;108.40;;;39.20;;
1479;SDS011;732;51.698;4.886;2023-11-21T05:47:42;93.07;;;37.03;;
1479;SDS011;732;51.698;4.886;2023-11-21T05:50:14;103.30;;;36.77;;
1479;SDS011;732;51.698;4.886;2023-11-21T05:52:47;93.87;;;35.77;;
1479;SDS011;732;51.698;4.886;2023-11-21T05:55:17;95.70;;;37.30;;
1479;SDS011;732;51.698;4.886;2023-11-21T05:57:47;109.27;;;40.53;;
1479;SDS011;732;51.698;4.886;2023-11-21T06:00:16;95.97;;;36.30;;
1479;SDS011;732;51.698;4.886;2023-11-21T06:02:48;97.80;;;37.50;;
1479;SDS011;732;51.698;4.886;2023-11-21T06:05:22;113.70;;;39.73;;
1479;SDS011;732;51.698;4.886;2023-11-21T06:07:54;112.60;;;37.00;;
1479;SDS011;732;51.698;4.886;2023-11-21T06:10:25;98.07;;;36.17;;
1479;SDS011;732;51.698;4.886;2023-11-21T06:12:55;101.63;;;36.90;;
1479;SDS011;732;51.698;4.886;2023-11-21T06:15:28;84.20;;;33.90;;
1479;SDS011;732;51.698;4.886;2023-11-21T06:17:57;87.27;;;35.50;;
1479;SDS011;732;51.698;4.886;2023-11-21T06:20:26;108.50;;;36.90;;
1479;SDS011;732;51.698;4.886;2023-11-21T06:22:56;93.63;;;34.60;;
1479;SDS011;732;51.698;4.886;2023-11-21T06:25:25;89.70;;;32.90;;
1479;SDS011;732;51.698;4.886;2023-11-21T06:27:53;80.00;;;33.30;;
1479;SDS011;732;51.698;4.886;2023-11-21T06:30:22;94.23;;;33.47;;
1479;SDS011;732;51.698;4.886;2023-11-21T06:32:51;96.17;;;33.60;;
1479;SDS011;732;51.698;4.886;2023-11-21T06:35:20;91.90;;;32.90;;
1479;SDS011;732;51.698;4.886;2023-11-21T06:37:49;103.77;;;37.00;;
1479;SDS011;732;51.698;4.886;2023-11-21T06:40:20;92.57;;;32.80;;
1479;SDS011;732;51.698;4.886;2023-11-21T06:42:48;106.70;;;33.80;;
1479;SDS011;732;51.698;4.886;2023-11-21T06:45:18;104.20;;;34.43;;
1479;SDS011;732;51.698;4.886;2023-11-21T06:47:48;106.80;;;35.20;;
1479;SDS011;732;51.698;4.886;2023-11-21T06:50:17;108.73;;;33.93;;
1479;SDS011;732;51.698;4.886;2023-11-21T06:52:45;109.30;;;34.80;;
1479;SDS011;732;51.698;4.886;2023-11-21T06:55:15;90.83;;;33.93;;
1479;SDS011;732;51.698;4.886;2023-11-21T06:57:45;98.53;;;33.17;;
1479;SDS011;732;51.698;4.886;2023-11-21T07:00:15;98.30;;;32.13;;
1479;SDS011;732;51.698;4.886;2023-11-21T07:02:45;101.73;;;34.00;;
1479;SDS011;732;51.698;4.886;2023-11-21T07:05:14;74.73;;;31.17;;
1479;SDS011;732;51.698;4.886;2023-11-21T07:07:47;104.97;;;33.17;;
1479;SDS011;732;51.698;4.886;2023-11-21T07:10:17;98.17;;;32.20;;
1479;SDS011;732;51.698;4.886;2023-11-21T07:12:47;91.77;;;30.63;;
1479;SDS011;732;51.698;4.886;2023-11-21T07:15:16;79.13;;;28.03;;
1479;SDS011;732;51.698;4.886;2023-11-21T07:17:46;84.67;;;29.47;;
1479;SDS011;732;51.698;4.886;2023-11-21T07:20:15;90.93;;;28.70;;
1479;SDS011;732;51.698;4.886;2023-11-21T07:22:44;93.17;;;29.63;;
1479;SDS011;732;51.698;4.886;2023-11-21T07:25:13;106.80;;;30.00;;
1479;SDS011;732;51.698;4.886;2023-11-21T07:27:42;92.60;;;28.57;;
1479;SDS011;732;51.698;4.886;2023-11-21T07:30:13;101.33;;;29.97;;
1479;SDS011;732;51.698;4.886;2023-11-21T07:32:42;103.20;;;29.83;;
1479;SDS011;732;51.698;4.886;2023-11-21T07:35:11;86.53;;;28.10;;
1479;SDS011;732;51.698;4.886;2023-11-21T07:37:40;119.83;;;32.67;;
1479;SDS011;732;51.698;4.886;2023-11-21T07:40:07;88.50;;;27.37;;
1479;SDS011;732;51.698;4.886;2023-11-21T07:42:38;105.70;;;29.33;;
1479;SDS011;732;51.698;4.886;2023-11-21T07:45:06;107.40;;;31.27;;
1479;SDS011;732;51.698;4.886;2023-11-21T07:47:37;120.23;;;31.20;;
1479;SDS011;732;51.698;4.886;2023-11-21T07:50:07;94.60;;;27.97;;
1479;SDS011;732;51.698;4.886;2023-11-21T07:52:36;84.13;;;25.97;;
1479;SDS011;732;51.698;4.886;2023-11-21T07:55:05;84.43;;;27.93;;
1479;SDS011;732;51.698;4.886;2023-11-21T07:57:35;79.13;;;25.33;;
1479;SDS011;732;51.698;4.886;2023-11-21T08:00:04;106.43;;;29.30;;
1479;SDS011;732;51.698;4.886;2023-11-21T08:02:40;76.40;;;26.57;;
1479;SDS011;732;51.698;4.886;2023-11-21T08:05:12;108.00;;;29.47;;
1479;SDS011;732;51.698;4.886;2023-11-21T08:07:53;72.80;;;25.17;;
1479;SDS011;732;51.698;4.886;2023-11-21T08:10:22;88.97;;;25.97;;
1479;SDS011;732;51.698;4.886;2023-11-21T08:12:51;88.93;;;26.43;;
1479;SDS011;732;51.698;4.886;2023-11-21T08:15:20;69.30;;;23.10;;
1479;SDS011;732;51.698;4.886;2023-11-21T08:17:49;65.43;;;22.40;;
1479;SDS011;732;51.698;4.886;2023-11-21T08:20:18;66.00;;;23.63;;
1479;SDS011;732;51.698;4.886;2023-11-21T08:22:46;48.73;;;19.47;;
1479;SDS011;732;51.698;4.886;2023-11-21T08:25:15;57.93;;;20.67;;
1479;SDS011;732;51.698;4.886;2023-11-21T08:27:46;57.77;;;19.23;;
1479;SDS011;732;51.698;4.886;2023-11-21T08:30:15;45.83;;;17.70;;
1479;SDS011;732;51.698;4.886;2023-11-21T08:32:46;44.70;;;17.43;;
1479;SDS011;732;51.698;4.886;2023-11-21T08:35:16;41.10;;;17.37;;
1479;SDS011;732;51.698;4.886;2023-11-21T08:37:44;44.10;;;16.90;;
1479;SDS011;732;51.698;4.886;2023-11-21T08:40:13;38.17;;;15.67;;
1479;SDS011;732;51.698;4.886;2023-11-21T08:42:43;34.60;;;14.87;;
1479;SDS011;732;51.698;4.886;2023-11-21T08:45:13;32.53;;;14.60;;
1479;SDS011;732;51.698;4.886;2023-11-21T08:47:44;29.17;;;14.30;;
1479;SDS011;732;51.698;4.886;2023-11-21T08:50:13;33.50;;;13.13;;
1479;SDS011;732;51.698;4.886;2023-11-21T08:52:43;30.23;;;12.70;;
1479;SDS011;732;51.698;4.886;2023-11-21T08:55:13;27.87;;;13.20;;
1479;SDS011;732;51.698;4.886;2023-11-21T08:57:43;26.70;;;13.03;;
1479;SDS011;732;51.698;4.886;2023-11-21T09:00:13;19.20;;;12.10;;
1479;SDS011;732;51.698;4.886;2023-11-21T09:02:44;22.33;;;11.30;;
1479;SDS011;732;51.698;4.886;2023-11-21T09:05:14;21.90;;;10.83;;
1479;SDS011;732;51.698;4.886;2023-11-21T09:07:45;22.10;;;12.00;;
1479;SDS011;732;51.698;4.886;2023-11-21T09:10:15;23.43;;;10.47;;
1479;SDS011;732;51.698;4.886;2023-11-21T09:12:43;19.37;;;10.60;;
1479;SDS011;732;51.698;4.886;2023-11-21T09:15:12;22.50;;;11.30;;
1479;SDS011;732;51.698;4.886;2023-11-21T09:17:41;18.57;;;10.13;;
1479;SDS011;732;51.698;4.886;2023-11-21T09:20:11;24.53;;;11.67;;
1479;SDS011;732;51.698;4.886;2023-11-21T09:22:42;23.07;;;11.87;;
1479;SDS011;732;51.698;4.886;2023-11-21T09:25:13;20.00;;;11.73;;
1479;SDS011;732;51.698;4.886;2023-11-21T09:27:41;23.93;;;12.27;;
1479;SDS011;732;51.698;4.886;2023-11-21T09:30:10;22.97;;;11.70;;
1479;SDS011;732;51.698;4.886;2023-11-21T09:32:40;27.13;;;13.10;;
1479;SDS011;732;51.698;4.886;2023-11-21T09:35:12;28.03;;;12.53;;
1479;SDS011;732;51.698;4.886;2023-11-21T09:37:44;19.67;;;11.70;;
1479;SDS011;732;51.698;4.886;2023-11-21T09:40:16;23.67;;;12.33;;
1479;SDS011;732;51.698;4.886;2023-11-21T09:42:52;26.37;;;13.30;;
1479;SDS011;732;51.698;4.886;2023-11-21T09:45:25;25.20;;;14.07;;
1479;SDS011;732;51.698;4.886;2023-11-21T09:47:56;25.53;;;14.40;;
1479;SDS011;732;51.698;4.886;2023-11-21T09:50:25;20.80;;;11.77;;
1479;SDS011;732;51.698;4.886;2023-11-21T09:53:07;24.10;;;12.80;;
1479;SDS011;732;51.698;4.886;2023-11-21T09:55:42;21.50;;;10.97;;
1479;SDS011;732;51.698;4.886;2023-11-21T09:58:14;23.70;;;12.87;;
1479;SDS011;732;51.698;4.886;2023-11-21T10:00:43;27.33;;;12.80;;
1479;SDS011;732;51.698;4.886;2023-11-21T10:03:13;23.27;;;13.37;;
1479;SDS011;732;51.698;4.886;2023-11-21T10:05:43;27.37;;;14.43;;
1479;SDS011;732;51.698;4.886;2023-11-21T10:08:14;29.90;;;13.70;;
1479;SDS011;732;51.698;4.886;2023-11-21T10:10:44;21.60;;;12.10;;
1479;SDS011;732;51.698;4.886;2023-11-21T10:13:16;22.03;;;11.53;;
1479;SDS011;732;51.698;4.886;2023-11-21T10:15:49;18.27;;;10.50;;
1479;SDS011;732;51.698;4.886;2023-11-21T10:18:19;19.70;;;10.23;;
1479;SDS011;732;51.698;4.886;2023-11-21T10:20:51;17.90;;;9.20;;
1479;SDS011;732;51.698;4.886;2023-11-21T10:23:22;15.43;;;9.07;;
1479;SDS011;732;51.698;4.886;2023-11-21T10:25:51;18.00;;;9.70;;
1479;SDS011;732;51.698;4.886;2023-11-21T10:28:23;16.70;;;8.93;;
1479;SDS011;732;51.698;4.886;2023-11-21T10:30:52;14.60;;;8.73;;
1479;SDS011;732;51.698;4.886;2023-11-21T10:33:26;15.87;;;7.37;;
1479;SDS011;732;51.698;4.886;2023-11-21T10:35:56;14.43;;;8.40;;
1479;SDS011;732;51.698;4.886;2023-11-21T10:38:26;14.93;;;8.13;;
1479;SDS011;732;51.698;4.886;2023-11-21T10:40:55;15.97;;;8.50;;
1479;SDS011;732;51.698;4.886;2023-11-21T10:43:24;19.53;;;9.43;;
1479;SDS011;732;51.698;4.886;2023-11-21T10:45:55;14.10;;;8.20;;
1479;SDS011;732;51.698;4.886;2023-11-21T10:48:26;21.93;;;9.60;;
1479;SDS011;732;51.698;4.886;2023-11-21T10:50:55;19.90;;;9.10;;
1479;SDS011;732;51.698;4.886;2023-11-21T10:53:28;22.83;;;10.03;;
1479;SDS011;732;51.698;4.886;2023-11-21T10:56:00;17.23;;;7.73;;
1479;SDS011;732;51.698;4.886;2023-11-21T10:58:33;17.00;;;7.87;;
1479;SDS011;732;51.698;4.886;2023-11-21T11:01:03;17.73;;;8.53;;
1479;SDS011;732;51.698;4.886;2023-11-21T11:03:34;13.50;;;7.20;;
1479;SDS011;732;51.698;4.886;2023-11-21T11:06:05;14.20;;;7.60;;
1479;SDS011;732;51.698;4.886;2023-11-21T11:08:39;15.57;;;8.23;;
1479;SDS011;732;51.698;4.886;2023-11-21T11:11:09;18.47;;;8.30;;
1479;SDS011;732;51.698;4.886;2023-11-21T11:13:38;23.20;;;8.90;;
1479;SDS011;732;51.698;4.886;2023-11-21T11:16:10;15.37;;;8.00;;
1479;SDS011;732;51.698;4.886;2023-11-21T11:18:44;14.43;;;9.50;;
1479;SDS011;732;51.698;4.886;2023-11-21T11:21:17;22.20;;;9.90;;
1479;SDS011;732;51.698;4.886;2023-11-21T11:24:04;19.70;;;9.77;;
1479;SDS011;732;51.698;4.886;2023-11-21T11:26:46;15.20;;;7.97;;
1479;SDS011;732;51.698;4.886;2023-11-21T11:29:25;18.77;;;8.60;;
1479;SDS011;732;51.698;4.886;2023-11-21T11:32:03;17.87;;;9.40;;
1479;SDS011;732;51.698;4.886;2023-11-21T11:34:41;15.73;;;9.00;;
1479;SDS011;732;51.698;4.886;2023-11-21T11:37:17;17.87;;;8.30;;
1479;SDS011;732;51.698;4.886;2023-11-21T11:39:47;16.40;;;7.90;;
1479;SDS011;732;51.698;4.886;2023-11-21T11:42:17;14.10;;;7.50;;
1479;SDS011;732;51.698;4.886;2023-11-21T11:44:47;17.33;;;8.60;;
1479;SDS011;732;51.698;4.886;2023-11-21T11:47:20;14.90;;;8.43;;
1479;SDS011;732;51.698;4.886;2023-11-21T11:49:56;15.63;;;7.97;;
1479;SDS011;732;51.698;4.886;2023-11-21T11:52:34;13.10;;;7.10;;
1479;SDS011;732;51.698;4.886;2023-11-21T11:55:09;15.97;;;7.63;;
1479;SDS011;732;51.698;4.886;2023-11-21T11:57:40;16.53;;;7.80;;
1479;SDS011;732;51.698;4.886;2023-11-21T12:00:10;14.37;;;8.00;;
1479;SDS011;732;51.698;4.886;2023-11-21T12:02:46;14.70;;;7.53;;
1479;SDS011;732;51.698;4.886;2023-11-21T12:05:16;14.80;;;8.67;;
1479;SDS011;732;51.698;4.886;2023-11-21T12:07:47;12.70;;;6.73;;
1479;SDS011;732;51.698;4.886;2023-11-21T12:10:21;15.23;;;8.50;;
1479;SDS011;732;51.698;4.886;2023-11-21T12:12:52;15.63;;;7.00;;
1479;SDS011;732;51.698;4.886;2023-11-21T12:15:23;15.13;;;7.43;;
1479;SDS011;732;51.698;4.886;2023-11-21T12:17:52;12.50;;;7.43;;
1479;SDS011;732;51.698;4.886;2023-11-21T12:20:21;11.23;;;6.87;;
1479;SDS011;732;51.698;4.886;2023-11-21T12:22:51;13.23;;;7.30;;
1479;SDS011;732;51.698;4.886;2023-11-21T12:25:23;13.67;;;7.03;;
1479;SDS011;732;51.698;4.886;2023-11-21T12:27:55;9.47;;;5.93;;
1479;SDS011;732;51.698;4.886;2023-11-21T12:30:25;11.00;;;6.83;;
1479;SDS011;732;51.698;4.886;2023-11-21T12:32:57;12.70;;;6.93;;
1479;SDS011;732;51.698;4.886;2023-11-21T12:35:28;11.17;;;6.73;;
1479;SDS011;732;51.698;4.886;2023-11-21T12:38:00;10.63;;;6.40;;
1479;SDS011;732;51.698;4.886;2023-11-21T12:40:31;10.57;;;6.87;;
1479;SDS011;732;51.698;4.886;2023-11-21T12:43:00;12.40;;;7.10;;
1479;SDS011;732;51.698;4.886;2023-11-21T12:45:31;12.73;;;7.17;;
1479;SDS011;732;51.698;4.886;2023-11-21T12:48:00;15.10;;;7.33;;
1479;SDS011;732;51.698;4.886;2023-11-21T12:50:34;15.93;;;8.00;;
1479;SDS011;732;51.698;4.886;2023-11-21T12:53:04;15.47;;;7.10;;
1479;SDS011;732;51.698;4.886;2023-11-21T12:55:36;11.87;;;8.13;;
1479;SDS011;732;51.698;4.886;2023-11-21T12:58:06;14.27;;;8.70;;
1479;SDS011;732;51.698;4.886;2023-11-21T13:00:38;12.87;;;8.23;;
1479;SDS011;732;51.698;4.886;2023-11-21T13:03:12;14.80;;;8.40;;
1479;SDS011;732;51.698;4.886;2023-11-21T13:05:45;16.00;;;9.60;;
1479;SDS011;732;51.698;4.886;2023-11-21T13:08:18;18.47;;;10.67;;
1479;SDS011;732;51.698;4.886;2023-11-21T13:10:52;22.07;;;12.57;;
1479;SDS011;732;51.698;4.886;2023-11-21T13:13:23;19.50;;;11.67;;
1479;SDS011;732;51.698;4.886;2023-11-21T13:15:55;21.90;;;12.27;;
1479;SDS011;732;51.698;4.886;2023-11-21T13:18:27;20.83;;;12.20;;
1479;SDS011;732;51.698;4.886;2023-11-21T13:20:57;21.17;;;13.17;;
1479;SDS011;732;51.698;4.886;2023-11-21T13:23:28;17.67;;;10.47;;
1479;SDS011;732;51.698;4.886;2023-11-21T13:26:04;17.90;;;10.97;;
1479;SDS011;732;51.698;4.886;2023-11-21T13:28:33;19.50;;;11.63;;
1479;SDS011;732;51.698;4.886;2023-11-21T13:31:05;19.60;;;12.87;;
1479;SDS011;732;51.698;4.886;2023-11-21T13:33:47;22.17;;;14.23;;
1479;SDS011;732;51.698;4.886;2023-11-21T13:36:22;23.60;;;13.03;;
1479;SDS011;732;51.698;4.886;2023-11-21T13:38:50;22.83;;;12.80;;
1479;SDS011;732;51.698;4.886;2023-11-21T13:41:21;21.80;;;12.20;;
1479;SDS011;732;51.698;4.886;2023-11-21T13:43:57;17.17;;;11.20;;
1479;SDS011;732;51.698;4.886;2023-11-21T13:46:35;20.17;;;11.80;;
1479;SDS011;732;51.698;4.886;2023-11-21T13:49:05;23.53;;;12.20;;
1479;SDS011;732;51.698;4.886;2023-11-21T13:51:36;20.23;;;10.87;;
1479;SDS011;732;51.698;4.886;2023-11-21T13:54:08;23.30;;;12.20;;
1479;SDS011;732;51.698;4.886;2023-11-21T13:56:38;20.93;;;12.73;;
1479;SDS011;732;51.698;4.886;2023-11-21T13:59:11;24.23;;;12.83;;
1479;SDS011;732;51.698;4.886;2023-11-21T14:01:47;23.03;;;12.60;;
1479;SDS011;732;51.698;4.886;2023-11-21T14:04:24;22.67;;;12.80;;
1479;SDS011;732;51.698;4.886;2023-11-21T14:07:13;20.60;;;13.17;;
1479;SDS011;732;51.698;4.886;2023-11-21T14:09:59;26.40;;;13.33;;
1479;SDS011;732;51.698;4.886;2023-11-21T14:12:29;23.60;;;13.20;;
1479;SDS011;732;51.698;4.886;2023-11-21T14:15:05;25.10;;;13.80;;
1479;SDS011;732;51.698;4.886;2023-11-21T14:17:36;22.87;;;13.70;;
1479;SDS011;732;51.698;4.886;2023-11-21T14:20:08;22.90;;;13.30;;
1479;SDS011;732;51.698;4.886;2023-11-21T14:22:42;24.30;;;13.20;;
1479;SDS011;732;51.698;4.886;2023-11-21T14:25:11;30.47;;;15.67;;
1479;SDS011;732;51.698;4.886;2023-11-21T14:27:42;27.70;;;16.33;;
1479;SDS011;732;51.698;4.886;2023-11-21T14:30:10;38.33;;;17.20;;
1479;SDS011;732;51.698;4.886;2023-11-21T14:32:44;40.70;;;17.40;;
1479;SDS011;732;51.698;4.886;2023-11-21T14:35:12;33.97;;;16.00;;
1479;SDS011;732;51.698;4.886;2023-11-21T14:37:42;28.70;;;15.00;;
1479;SDS011;732;51.698;4.886;2023-11-21T14:40:11;33.80;;;16.63;;
1479;SDS011;732;51.698;4.886;2023-11-21T14:42:43;27.70;;;15.70;;
1479;SDS011;732;51.698;4.886;2023-11-21T14:45:14;29.10;;;15.87;;
1479;SDS011;732;51.698;4.886;2023-11-21T14:47:46;35.20;;;17.03;;
1479;SDS011;732;51.698;4.886;2023-11-21T14:50:23;33.23;;;16.07;;
1479;SDS011;732;51.698;4.886;2023-11-21T14:53:10;27.67;;;16.13;;
1479;SDS011;732;51.698;4.886;2023-11-21T14:55:39;34.23;;;16.80;;
1479;SDS011;732;51.698;4.886;2023-11-21T14:58:23;31.70;;;16.63;;
1479;SDS011;732;51.698;4.886;2023-11-21T15:00:53;30.10;;;16.83;;
1479;SDS011;732;51.698;4.886;2023-11-21T15:03:25;28.30;;;17.10;;
1479;SDS011;732;51.698;4.886;2023-11-21T15:06:16;28.97;;;17.33;;
1479;SDS011;732;51.698;4.886;2023-11-21T15:08:53;32.67;;;15.43;;
1479;SDS011;732;51.698;4.886;2023-11-21T15:11:44;26.80;;;14.27;;
1479;SDS011;732;51.698;4.886;2023-11-21T15:14:15;26.43;;;14.93;;
1479;SDS011;732;51.698;4.886;2023-11-21T15:16:48;27.77;;;14.70;;
1479;SDS011;732;51.698;4.886;2023-11-21T15:19:20;28.97;;;15.00;;
1479;SDS011;732;51.698;4.886;2023-11-21T15:21:52;31.13;;;15.17;;